createdAt,value
2018-07-24T00:00:24.048Z,10.82
2018-07-24T00:02:52.899Z,11.35
2018-07-24T00:05:22.489Z,11.02
2018-07-24T00:07:52.076Z,11.10
2018-07-24T00:10:20.921Z,11.98
2018-07-24T00:12:49.768Z,11.50
2018-07-24T00:15:18.630Z,10.98
2018-07-24T00:17:47.480Z,12.15
2018-07-24T00:20:16.315Z,11.10
2018-07-24T00:22:45.151Z,11.20
2018-07-24T00:25:13.996Z,11.73
2018-07-24T00:27:42.835Z,11.32
2018-07-24T00:30:11.685Z,12.37
2018-07-24T00:32:40.524Z,11.82
2018-07-24T00:35:09.368Z,12.27
2018-07-24T00:37:38.216Z,12.60
2018-07-24T00:40:07.050Z,13.27
2018-07-24T00:42:35.897Z,11.65
2018-07-24T00:45:04.750Z,11.57
2018-07-24T00:47:33.600Z,12.15
2018-07-24T00:50:02.427Z,12.15
2018-07-24T00:52:31.281Z,11.90
2018-07-24T00:55:00.135Z,10.50
2018-07-24T00:57:28.974Z,11.75
2018-07-24T00:59:58.561Z,11.88
2018-07-24T01:02:27.399Z,11.25
2018-07-24T01:04:56.241Z,10.93
2018-07-24T01:07:25.086Z,11.85
2018-07-24T01:09:53.941Z,13.13
2018-07-24T01:12:23.520Z,14.13
2018-07-24T01:14:52.362Z,15.50
2018-07-24T01:17:21.209Z,14.38
2018-07-24T01:19:50.049Z,14.07
2018-07-24T01:22:18.884Z,15.32
2018-07-24T01:24:47.734Z,13.98
2018-07-24T01:27:16.572Z,13.00
2018-07-24T01:29:45.417Z,14.55
2018-07-24T01:32:14.250Z,13.60
2018-07-24T01:34:43.093Z,13.57
2018-07-24T01:37:11.932Z,13.40
2018-07-24T01:39:41.524Z,12.35
2018-07-24T01:42:10.379Z,12.52
2018-07-24T01:44:39.216Z,12.88
2018-07-24T01:47:08.057Z,12.65
2018-07-24T01:49:36.900Z,12.30
2018-07-24T01:52:06.501Z,12.40
2018-07-24T01:54:36.095Z,12.45
2018-07-24T01:57:04.945Z,11.82
2018-07-24T01:59:33.793Z,12.32
2018-07-24T02:02:03.380Z,11.18
2018-07-24T02:04:32.233Z,12.85
2018-07-24T02:07:01.068Z,11.40
2018-07-24T02:09:29.912Z,11.20
2018-07-24T02:11:58.754Z,11.48
2018-07-24T02:14:28.337Z,12.65
2018-07-24T02:16:57.185Z,12.52
2018-07-24T02:19:26.033Z,11.77
2018-07-24T02:21:54.888Z,11.32
2018-07-24T02:24:23.723Z,13.52
2018-07-24T02:26:52.571Z,12.23
2018-07-24T02:29:21.419Z,11.95
2018-07-24T02:31:50.325Z,13.18
2018-07-24T02:34:19.117Z,12.50
2018-07-24T02:36:47.957Z,11.73
2018-07-24T02:39:16.794Z,12.68
2018-07-24T02:41:45.632Z,12.77
2018-07-24T02:44:15.072Z,12.43
2018-07-24T02:46:43.923Z,12.63
2018-07-24T02:49:12.753Z,11.70
2018-07-24T02:51:41.604Z,12.32
2018-07-24T02:54:10.452Z,13.85
2018-07-24T02:56:39.297Z,12.52
2018-07-24T02:59:08.881Z,13.10
2018-07-24T03:01:37.778Z,15.23
2018-07-24T03:04:06.551Z,13.68
2018-07-24T03:06:35.386Z,13.02
2018-07-24T03:09:04.233Z,13.02
2018-07-24T03:11:33.072Z,13.23
2018-07-24T03:14:01.918Z,14.55
2018-07-24T03:16:30.754Z,14.65
2018-07-24T03:18:59.602Z,14.50
2018-07-24T03:21:28.443Z,14.13
2018-07-24T03:23:57.283Z,12.52
2018-07-24T03:26:26.130Z,13.07
2018-07-24T03:28:54.979Z,14.05
2018-07-24T03:31:23.827Z,13.88
2018-07-24T03:33:52.660Z,13.35
2018-07-24T03:36:22.251Z,15.07
2018-07-24T03:38:51.108Z,13.02
2018-07-24T03:41:19.952Z,15.80
2018-07-24T03:43:48.792Z,14.15
2018-07-24T03:46:17.974Z,13.77
2018-07-24T03:48:46.811Z,14.32
2018-07-24T03:51:16.394Z,14.40
2018-07-24T03:53:45.231Z,13.52
2018-07-24T03:56:14.085Z,13.80
2018-07-24T03:58:42.937Z,13.27
2018-07-24T04:01:11.780Z,13.62
2018-07-24T04:03:40.628Z,14.40
2018-07-24T04:06:09.481Z,14.02
2018-07-24T04:08:38.329Z,14.80
2018-07-24T04:11:07.189Z,13.73
2018-07-24T04:13:36.031Z,13.35
2018-07-24T04:16:04.880Z,13.57
2018-07-24T04:18:33.719Z,14.32
2018-07-24T04:21:03.303Z,12.52
2018-07-24T04:23:32.154Z,13.05
2018-07-24T04:26:00.999Z,12.90
2018-07-24T04:28:29.884Z,13.32
2018-07-24T04:30:58.735Z,14.05
2018-07-24T04:33:27.539Z,13.23
2018-07-24T04:35:56.383Z,12.80
2018-07-24T04:38:25.237Z,13.25
2018-07-24T04:40:54.086Z,13.00
2018-07-24T04:43:22.935Z,13.27
2018-07-24T04:45:51.777Z,12.13
2018-07-24T04:48:20.655Z,12.05
2018-07-24T04:50:49.466Z,12.73
2018-07-24T04:53:18.314Z,12.82
2018-07-24T04:55:47.160Z,18.17
2018-07-24T04:58:16.013Z,23.02
2018-07-24T05:00:44.845Z,22.45
2018-07-24T05:03:14.487Z,20.27
2018-07-24T05:05:43.290Z,20.55
2018-07-24T05:08:12.116Z,19.17
2018-07-24T05:10:40.961Z,17.33
2018-07-24T05:13:09.818Z,17.80
2018-07-24T05:15:39.417Z,16.00
2018-07-24T05:18:08.264Z,15.40
2018-07-24T05:20:37.104Z,15.45
2018-07-24T05:23:06.685Z,13.60
2018-07-24T05:25:35.525Z,14.23
2018-07-24T05:28:04.376Z,10.15
2018-07-24T05:30:33.229Z,13.85
2018-07-24T05:33:02.086Z,12.45
2018-07-24T05:35:30.915Z,14.00
2018-07-24T05:37:59.762Z,13.52
2018-07-24T05:40:28.622Z,12.52
2018-07-24T05:42:57.476Z,11.77
2018-07-24T05:45:27.052Z,12.68
2018-07-24T05:47:55.893Z,14.10
2018-07-24T05:50:25.475Z,14.15
2018-07-24T05:52:54.313Z,16.25
2018-07-24T05:55:23.161Z,14.87
2018-07-24T05:57:52.001Z,15.07
2018-07-24T06:00:20.840Z,15.25
2018-07-24T06:02:49.679Z,13.75
2018-07-24T06:05:18.516Z,16.10
2018-07-24T06:07:47.384Z,14.98
2018-07-24T06:10:16.228Z,16.00
2018-07-24T06:12:45.816Z,16.00
2018-07-24T06:15:14.656Z,19.50
2018-07-24T06:17:43.511Z,21.37
2018-07-24T06:20:13.096Z,19.67
2018-07-24T06:22:41.953Z,23.33
2018-07-24T06:25:10.801Z,26.17
2018-07-24T06:27:40.377Z,24.67
2018-07-24T06:30:09.251Z,23.10
2018-07-24T06:32:38.096Z,27.05
2018-07-24T06:35:06.996Z,27.23
2018-07-24T06:37:35.805Z,24.70
2018-07-24T06:40:04.646Z,18.80
2018-07-24T06:42:33.483Z,21.80
2018-07-24T06:45:02.333Z,21.92
2018-07-24T06:47:31.179Z,21.15
2018-07-24T06:50:00.031Z,26.48
2018-07-24T06:52:28.869Z,24.85
2018-07-24T06:54:58.296Z,25.27
2018-07-24T06:57:27.883Z,24.55
2018-07-24T06:59:56.728Z,26.20
2018-07-24T07:02:25.569Z,25.35
2018-07-24T07:04:55.199Z,25.10
2018-07-24T07:07:23.983Z,24.55
2018-07-24T07:09:52.836Z,23.30
2018-07-24T07:12:21.689Z,25.90
2018-07-24T07:14:50.535Z,24.73
2018-07-24T07:17:20.135Z,24.98
2018-07-24T07:19:49.721Z,28.02
2018-07-24T07:22:18.559Z,27.83
2018-07-24T07:24:47.400Z,25.70
2018-07-24T07:27:16.238Z,23.12
2018-07-24T07:29:45.082Z,21.42
2018-07-24T07:32:13.939Z,24.33
2018-07-24T07:34:42.770Z,23.67
2018-07-24T07:37:11.609Z,25.40
2018-07-24T07:39:40.450Z,26.20
2018-07-24T07:42:09.296Z,26.20
2018-07-24T07:44:38.146Z,25.88
2018-07-24T07:47:07.738Z,26.52
2018-07-24T07:49:36.590Z,25.62
2018-07-24T07:52:05.441Z,23.50
2018-07-24T07:54:35.030Z,25.83
2018-07-24T07:57:03.880Z,23.75
2018-07-24T07:59:32.729Z,25.58
2018-07-24T08:02:01.577Z,22.10
2018-07-24T08:04:30.407Z,22.42
2018-07-24T08:06:59.256Z,23.08
2018-07-24T08:09:28.110Z,23.95
2018-07-24T08:11:56.945Z,21.55
2018-07-24T08:14:26.531Z,25.12
2018-07-24T08:16:55.374Z,25.10
2018-07-24T08:19:24.222Z,20.90
2018-07-24T08:21:53.060Z,22.70
2018-07-24T08:24:21.904Z,21.83
2018-07-24T08:26:50.756Z,21.75
2018-07-24T08:29:19.603Z,22.00
2018-07-24T08:31:48.458Z,22.48
2018-07-24T08:34:17.309Z,22.98
2018-07-24T08:36:46.165Z,21.77
2018-07-24T08:39:15.023Z,18.50
2018-07-24T08:41:43.873Z,17.65
2018-07-24T08:44:12.716Z,18.35
2018-07-24T08:46:41.576Z,19.65
2018-07-24T08:49:10.448Z,19.70
2018-07-24T08:51:39.263Z,17.77
2018-07-24T08:54:08.238Z,17.15
2018-07-24T08:56:36.956Z,17.87
2018-07-24T08:59:06.545Z,17.08
2018-07-24T09:01:35.400Z,16.15
2018-07-24T09:04:04.244Z,16.05
2018-07-24T09:06:33.082Z,14.35
2018-07-24T09:09:01.929Z,13.10
2018-07-24T09:11:30.774Z,14.80
2018-07-24T09:13:59.623Z,14.30
2018-07-24T09:16:29.201Z,13.30
2018-07-24T09:18:58.041Z,13.07
2018-07-24T09:21:26.892Z,11.45
2018-07-24T09:23:55.760Z,13.57
2018-07-24T09:26:24.595Z,13.13
2018-07-24T09:28:53.445Z,13.62
2018-07-24T09:31:22.285Z,12.90
2018-07-24T09:33:51.135Z,12.60
2018-07-24T09:36:19.980Z,11.30
2018-07-24T09:38:48.824Z,9.80
2018-07-24T09:41:17.661Z,10.73
2018-07-24T09:43:46.498Z,9.85
2018-07-24T09:46:15.354Z,12.82
2018-07-24T09:48:44.194Z,10.48
2018-07-24T09:51:13.808Z,9.43
2018-07-24T09:53:42.670Z,9.07
2018-07-24T09:56:12.242Z,11.00
2018-07-24T09:58:41.080Z,9.40
2018-07-24T10:01:10.673Z,9.90
2018-07-24T10:03:39.507Z,9.52
2018-07-24T10:06:08.346Z,9.50
2018-07-24T10:08:37.192Z,9.68
2018-07-24T10:11:06.078Z,9.75
2018-07-24T10:13:34.883Z,9.00
2018-07-24T10:16:03.718Z,9.77
2018-07-24T10:18:32.571Z,8.80
2018-07-24T10:21:01.416Z,9.57
2018-07-24T10:23:30.265Z,8.65
2018-07-24T10:25:59.128Z,9.15
2018-07-24T10:28:27.973Z,8.88
2018-07-24T10:30:56.808Z,9.50
2018-07-24T10:33:25.644Z,10.13
2018-07-24T10:35:55.239Z,8.82
2018-07-24T10:38:24.089Z,8.77
2018-07-24T10:40:52.937Z,9.63
2018-07-24T10:43:21.774Z,8.60
2018-07-24T10:45:50.632Z,8.18
2018-07-24T10:48:19.462Z,7.72
2018-07-24T10:50:48.320Z,8.38
2018-07-24T10:53:17.166Z,9.55
2018-07-24T10:55:46.018Z,8.35
2018-07-24T10:58:14.853Z,8.13
2018-07-24T11:00:43.736Z,9.20
2018-07-24T11:03:12.557Z,8.52
2018-07-24T11:05:42.140Z,8.10
2018-07-24T11:08:11.576Z,8.43
2018-07-24T11:10:40.412Z,8.48
2018-07-24T11:13:09.249Z,7.15
2018-07-24T11:15:38.116Z,8.32
2018-07-24T11:18:06.947Z,8.25
2018-07-24T11:20:35.804Z,8.07
2018-07-24T11:23:04.755Z,7.70
2018-07-24T11:25:33.463Z,7.45
2018-07-24T11:28:02.305Z,7.32
2018-07-24T11:30:31.158Z,7.50
2018-07-24T11:33:00.738Z,6.95
2018-07-24T11:35:29.644Z,7.18
2018-07-24T11:37:59.142Z,7.40
2018-07-24T11:40:27.995Z,6.82
2018-07-24T11:42:56.831Z,6.90
2018-07-24T11:45:25.665Z,7.07
2018-07-24T11:47:54.505Z,7.93
2018-07-24T11:50:23.365Z,6.65
2018-07-24T11:52:52.199Z,6.85
2018-07-24T11:55:21.786Z,11.88
2018-07-24T11:57:50.648Z,7.30
2018-07-24T12:00:19.476Z,6.62
2018-07-24T12:02:48.328Z,9.25
2018-07-24T12:05:17.174Z,17.45
2018-07-24T12:07:46.080Z,6.85
2018-07-24T12:10:14.874Z,6.90
2018-07-24T12:12:43.730Z,6.75
2018-07-24T12:15:12.635Z,6.43
2018-07-24T12:17:41.429Z,7.65
2018-07-24T12:20:10.288Z,6.10
2018-07-24T12:22:39.125Z,6.93
2018-07-24T12:25:08.002Z,7.00
2018-07-24T12:27:36.825Z,7.75
2018-07-24T12:30:05.676Z,6.78
2018-07-24T12:32:34.555Z,6.55
2018-07-24T12:35:03.366Z,6.43
2018-07-24T12:37:32.211Z,7.53
2018-07-24T12:40:01.052Z,7.05
2018-07-24T12:42:30.642Z,6.70
2018-07-24T12:44:59.473Z,6.22
2018-07-24T12:47:28.312Z,6.67
2018-07-24T12:49:57.146Z,6.25
2018-07-24T12:52:26.016Z,6.97
2018-07-24T12:54:54.840Z,6.85
2018-07-24T12:57:23.678Z,6.80
2018-07-24T12:59:52.527Z,8.23
2018-07-24T13:02:21.373Z,6.82
2018-07-24T13:04:50.222Z,5.85
2018-07-24T13:07:19.082Z,6.50
2018-07-24T13:09:47.899Z,6.30
2018-07-24T13:12:16.740Z,6.40
2018-07-24T13:14:45.583Z,6.47
2018-07-24T13:17:14.416Z,6.70
2018-07-24T13:19:43.996Z,6.00
2018-07-24T13:22:12.826Z,6.78
2018-07-24T13:24:41.728Z,5.55
2018-07-24T13:27:10.500Z,6.40
2018-07-24T13:29:40.094Z,6.60
2018-07-24T13:32:09.773Z,5.85
2018-07-24T13:34:38.515Z,5.87
2018-07-24T13:37:07.370Z,6.20
2018-07-24T13:39:36.218Z,5.80
2018-07-24T13:42:05.058Z,5.80
2018-07-24T13:44:34.648Z,5.10
2018-07-24T13:47:03.481Z,8.00
2018-07-24T13:49:32.326Z,5.78
2018-07-24T13:52:01.182Z,5.80
2018-07-24T13:54:30.053Z,5.68
2018-07-24T13:56:58.863Z,5.70
2018-07-24T13:59:27.735Z,5.07
2018-07-24T14:01:56.569Z,5.37
2018-07-24T14:04:25.410Z,5.03
2018-07-24T14:06:54.249Z,5.55
2018-07-24T14:09:23.100Z,5.28
2018-07-24T14:11:51.947Z,5.80
2018-07-24T14:14:20.812Z,6.00
2018-07-24T14:16:49.654Z,4.75
2018-07-24T14:19:18.496Z,5.30
2018-07-24T14:21:47.440Z,5.55
2018-07-24T14:24:16.182Z,5.30
2018-07-24T14:26:45.030Z,4.78
2018-07-24T14:29:13.868Z,5.32
2018-07-24T14:31:42.716Z,5.68
2018-07-24T14:34:11.864Z,5.62
2018-07-24T14:36:40.703Z,5.45
2018-07-24T14:39:09.538Z,5.45
2018-07-24T14:41:38.395Z,4.93
2018-07-24T14:44:07.241Z,4.72
2018-07-24T14:46:36.093Z,5.25
2018-07-24T14:49:04.940Z,5.25
2018-07-24T14:51:33.782Z,5.25
2018-07-24T14:54:02.617Z,4.35
2018-07-24T14:56:31.481Z,5.20
2018-07-24T14:59:00.333Z,4.75
2018-07-24T15:01:29.157Z,5.18
2018-07-24T15:03:58.976Z,5.78
2018-07-24T15:06:27.587Z,5.03
2018-07-24T15:08:56.425Z,5.22
2018-07-24T15:11:25.255Z,5.07
2018-07-24T15:13:54.100Z,4.72
2018-07-24T15:16:22.954Z,5.30
2018-07-24T15:18:51.786Z,4.47
2018-07-24T15:21:20.623Z,5.03
2018-07-24T15:23:49.454Z,4.95
2018-07-24T15:26:18.294Z,5.60
2018-07-24T15:28:47.189Z,6.80
2018-07-24T15:31:15.990Z,5.57
2018-07-24T15:33:44.842Z,5.30
2018-07-24T15:36:13.700Z,4.70
2018-07-24T15:38:42.546Z,4.72
2018-07-24T15:41:11.400Z,5.28
2018-07-24T15:43:40.238Z,5.45
2018-07-24T15:46:09.073Z,4.93
2018-07-24T15:48:37.931Z,4.87
2018-07-24T15:51:06.757Z,6.80
2018-07-24T15:53:35.608Z,5.53
2018-07-24T15:56:04.496Z,6.00
2018-07-24T15:58:34.038Z,5.30
2018-07-24T16:01:02.878Z,5.18
2018-07-24T16:03:31.718Z,5.28
2018-07-24T16:06:01.325Z,4.70
2018-07-24T16:08:30.143Z,5.50
2018-07-24T16:10:58.995Z,4.93
2018-07-24T16:13:28.572Z,4.78
2018-07-24T16:15:57.462Z,5.10
2018-07-24T16:18:26.982Z,4.60
2018-07-24T16:20:56.562Z,5.00
2018-07-24T16:23:25.397Z,4.90
2018-07-24T16:25:54.980Z,4.43
2018-07-24T16:28:23.814Z,4.95
2018-07-24T16:30:52.656Z,4.60
2018-07-24T16:33:21.496Z,4.97
2018-07-24T16:35:50.330Z,5.55
2018-07-24T16:38:19.161Z,4.78
2018-07-24T16:40:48.004Z,5.10
2018-07-24T16:43:16.862Z,5.15
2018-07-24T16:45:45.736Z,5.55
2018-07-24T16:48:14.543Z,4.90
2018-07-24T16:50:43.379Z,4.53
2018-07-24T16:53:12.220Z,4.22
2018-07-24T16:55:41.070Z,4.80
2018-07-24T16:58:09.905Z,4.45
2018-07-24T17:00:38.744Z,3.97
2018-07-24T17:03:07.629Z,4.22
2018-07-24T17:05:36.431Z,5.40
2018-07-24T17:08:06.016Z,4.60
2018-07-24T17:10:34.870Z,4.82
2018-07-24T17:13:04.464Z,4.75
2018-07-24T17:15:33.346Z,4.65
2018-07-24T17:18:02.166Z,4.70
2018-07-24T17:20:31.003Z,5.22
2018-07-24T17:22:59.842Z,4.78
2018-07-24T17:25:28.668Z,6.20
2018-07-24T17:27:57.515Z,4.68
2018-07-24T17:30:26.367Z,5.03
2018-07-24T17:32:55.208Z,4.85
2018-07-24T17:35:24.110Z,4.30
2018-07-24T17:37:52.896Z,7.07
2018-07-24T17:40:21.782Z,5.07
2018-07-24T17:42:50.590Z,4.97
2018-07-24T17:45:19.444Z,4.32
2018-07-24T17:47:48.286Z,4.82
2018-07-24T17:50:17.130Z,5.10
2018-07-24T17:52:45.962Z,4.43
2018-07-24T17:55:14.849Z,4.22
2018-07-24T17:57:43.657Z,4.57
2018-07-24T18:00:12.507Z,7.37
2018-07-24T18:02:41.355Z,5.87
2018-07-24T18:05:10.201Z,5.37
2018-07-24T18:07:39.047Z,4.18
2018-07-24T18:10:07.898Z,4.90
2018-07-24T18:12:36.738Z,4.87
2018-07-24T18:15:05.573Z,7.57
2018-07-24T18:17:34.438Z,4.90
2018-07-24T18:20:04.023Z,4.53
2018-07-24T18:22:32.917Z,4.55
2018-07-24T18:25:01.716Z,4.87
2018-07-24T18:27:30.558Z,4.68
2018-07-24T18:29:59.401Z,5.12
2018-07-24T18:32:28.250Z,4.45
2018-07-24T18:34:57.085Z,5.90
2018-07-24T18:37:25.927Z,5.43
2018-07-24T18:39:54.779Z,4.65
2018-07-24T18:42:24.367Z,5.10
2018-07-24T18:44:53.203Z,6.93
2018-07-24T18:47:22.049Z,5.82
2018-07-24T18:49:50.905Z,7.10
2018-07-24T18:52:19.849Z,6.37
2018-07-24T18:54:48.658Z,5.15
2018-07-24T18:57:17.496Z,4.93
2018-07-24T18:59:46.463Z,7.05
2018-07-24T19:02:16.018Z,9.38
2018-07-24T19:04:45.603Z,5.70
2018-07-24T19:07:14.457Z,5.57
2018-07-24T19:09:43.311Z,6.57
2018-07-24T19:12:13.058Z,5.40
2018-07-24T19:14:41.885Z,7.20
2018-07-24T19:17:11.483Z,5.93
2018-07-24T19:19:40.325Z,5.70
2018-07-24T19:22:09.163Z,7.85
2018-07-24T19:24:38.044Z,7.30
2018-07-24T19:27:07.139Z,6.82
2018-07-24T19:29:36.034Z,8.38
2018-07-24T19:32:05.055Z,6.47
2018-07-24T19:34:34.199Z,7.10
2018-07-24T19:37:03.035Z,7.75
2018-07-24T19:39:32.077Z,6.90
2018-07-24T19:42:01.849Z,5.87
2018-07-24T19:44:31.608Z,6.57
2018-07-24T19:47:01.434Z,6.65
2018-07-24T19:49:30.401Z,6.30
2018-07-24T19:51:59.275Z,5.95
2018-07-24T19:54:28.512Z,6.35
2018-07-24T19:56:57.372Z,5.55
2018-07-24T19:59:26.399Z,5.57
2018-07-24T20:01:55.515Z,5.07
2018-07-24T20:04:24.422Z,5.30
2018-07-24T20:06:53.497Z,5.55
2018-07-24T20:09:22.390Z,5.55
2018-07-24T20:11:51.318Z,7.47
2018-07-24T20:14:20.242Z,7.28
2018-07-24T20:16:49.351Z,7.43
2018-07-24T20:19:18.201Z,6.03
2018-07-24T20:21:47.221Z,5.45
2018-07-24T20:24:16.914Z,7.32
2018-07-24T20:26:45.729Z,6.57
2018-07-24T20:29:14.624Z,5.82
2018-07-24T20:31:43.491Z,9.10
2018-07-24T20:34:12.375Z,6.70
2018-07-24T20:36:41.264Z,7.28
2018-07-24T20:39:10.155Z,6.82
2018-07-24T20:41:39.047Z,6.65
2018-07-24T20:44:07.866Z,9.25
2018-07-24T20:46:36.727Z,7.18
2018-07-24T20:49:05.568Z,7.75
2018-07-24T20:51:34.411Z,8.10
2018-07-24T20:54:03.996Z,7.70
2018-07-24T20:56:33.593Z,7.65
2018-07-24T20:59:02.444Z,7.80
2018-07-24T21:01:31.279Z,7.40
2018-07-24T21:04:00.126Z,6.50
2018-07-24T21:06:28.970Z,7.68
2018-07-24T21:08:58.564Z,7.03
2018-07-24T21:11:27.407Z,7.53
2018-07-24T21:13:56.250Z,6.55
2018-07-24T21:16:25.828Z,6.75
2018-07-24T21:18:55.260Z,6.40
2018-07-24T21:21:24.839Z,6.65
2018-07-24T21:23:53.706Z,6.07
2018-07-24T21:26:22.541Z,8.15
2018-07-24T21:28:51.397Z,6.68
2018-07-24T21:31:20.237Z,7.68
2018-07-24T21:33:49.063Z,7.60
2018-07-24T21:36:17.912Z,8.40
2018-07-24T21:38:47.525Z,7.75
2018-07-24T21:41:16.352Z,8.45
2018-07-24T21:43:45.194Z,8.40
2018-07-24T21:46:14.033Z,7.60
2018-07-24T21:48:42.869Z,7.18
2018-07-24T21:51:11.703Z,7.75
2018-07-24T21:53:40.544Z,9.40
2018-07-24T21:56:09.441Z,8.65
2018-07-24T21:58:38.271Z,9.45
2018-07-24T22:01:07.121Z,9.13
2018-07-24T22:03:35.962Z,10.05
2018-07-24T22:06:04.812Z,8.43
2018-07-24T22:08:33.666Z,7.97
2018-07-24T22:11:02.495Z,8.32
2018-07-24T22:13:31.340Z,9.13
2018-07-24T22:16:00.198Z,8.10
2018-07-24T22:18:29.043Z,8.10
2018-07-24T22:20:58.631Z,8.63
2018-07-24T22:23:28.209Z,9.07
2018-07-24T22:25:57.039Z,9.60
2018-07-24T22:28:26.620Z,8.05
2018-07-24T22:30:55.467Z,11.05
2018-07-24T22:33:24.317Z,8.55
2018-07-24T22:35:53.179Z,9.63
2018-07-24T22:38:22.016Z,9.27
2018-07-24T22:40:51.603Z,9.50
2018-07-24T22:43:20.447Z,12.63
2018-07-24T22:45:49.290Z,9.45
2018-07-24T22:48:18.875Z,11.45
2018-07-24T22:50:47.725Z,11.00
2018-07-24T22:53:16.569Z,10.80
2018-07-24T22:55:45.425Z,13.68
2018-07-24T22:58:14.266Z,11.15
2018-07-24T23:00:43.111Z,12.37
2018-07-24T23:03:11.950Z,13.13
2018-07-24T23:05:40.801Z,9.55
2018-07-24T23:08:09.642Z,10.13
2018-07-24T23:10:38.491Z,9.23
2018-07-24T23:13:07.334Z,10.88
2018-07-24T23:15:36.197Z,9.90
2018-07-24T23:18:05.020Z,9.90
2018-07-24T23:20:33.857Z,9.70
2018-07-24T23:23:02.725Z,9.90
2018-07-24T23:25:31.532Z,10.50
2018-07-24T23:28:01.116Z,10.32
2018-07-24T23:30:29.960Z,10.40
2018-07-24T23:32:58.798Z,9.32
2018-07-24T23:35:27.631Z,9.23
2018-07-24T23:37:56.475Z,9.80
2018-07-24T23:40:25.898Z,9.43
2018-07-24T23:42:55.484Z,11.02
2018-07-24T23:45:24.351Z,9.13
2018-07-24T23:47:53.215Z,10.35
2018-07-24T23:50:22.061Z,9.25
2018-07-24T23:52:50.903Z,9.27
2018-07-24T23:55:19.752Z,9.73
2018-07-24T23:57:48.603Z,9.13
